createdAt,value
2018-10-17T00:00:52.666Z,1014.97
2018-10-17T00:01:52.601Z,1014.97
2018-10-17T00:02:52.608Z,1014.96
2018-10-17T00:03:52.585Z,1014.96
2018-10-17T00:04:52.589Z,1014.95
2018-10-17T00:05:52.586Z,1014.92
2018-10-17T00:06:52.612Z,1014.97
2018-10-17T00:07:52.573Z,1014.95
2018-10-17T00:08:52.566Z,1014.93
2018-10-17T00:09:52.561Z,1014.95
2018-10-17T00:10:52.592Z,1014.94
2018-10-17T00:11:52.542Z,1014.86
2018-10-17T00:12:52.565Z,1014.90
2018-10-17T00:13:52.550Z,1014.88
2018-10-17T00:14:52.527Z,1014.87
2018-10-17T00:15:52.537Z,1014.93
2018-10-17T00:16:52.528Z,1014.86
2018-10-17T00:17:52.513Z,1014.92
2018-10-17T00:18:52.507Z,1014.90
2018-10-17T00:19:52.493Z,1014.91
2018-10-17T00:20:52.492Z,1014.95
2018-10-17T00:21:52.508Z,1014.97
2018-10-17T00:22:52.494Z,1014.94
2018-10-17T00:23:52.481Z,1014.99
2018-10-17T00:24:52.523Z,1014.97
2018-10-17T00:25:52.462Z,1014.97
2018-10-17T00:26:52.463Z,1014.94
2018-10-17T00:27:52.457Z,1014.97
2018-10-17T00:28:52.496Z,1014.94
2018-10-17T00:29:52.442Z,1014.92
2018-10-17T00:30:52.443Z,1014.96
2018-10-17T00:31:52.421Z,1014.91
2018-10-17T00:32:52.430Z,1014.92
2018-10-17T00:33:52.422Z,1014.95
2018-10-17T00:34:52.413Z,1014.92
2018-10-17T00:35:52.403Z,1014.93
2018-10-17T00:36:52.403Z,1014.98
2018-10-17T00:37:52.386Z,1014.94
2018-10-17T00:38:52.396Z,1014.97
2018-10-17T00:39:52.376Z,1014.96
2018-10-17T00:40:52.386Z,1014.90
2018-10-17T00:41:52.366Z,1014.96
2018-10-17T00:42:52.384Z,1014.94
2018-10-17T00:43:52.365Z,1014.96
2018-10-17T00:44:52.348Z,1014.89
2018-10-17T00:45:52.341Z,1014.88
2018-10-17T00:46:52.368Z,1014.86
2018-10-17T00:47:52.337Z,1014.85
2018-10-17T00:48:52.357Z,1014.88
2018-10-17T00:49:52.325Z,1014.87
2018-10-17T00:50:52.313Z,1014.86
2018-10-17T00:51:52.317Z,1014.85
2018-10-17T00:52:52.361Z,1014.90
2018-10-17T00:53:52.301Z,1014.83
2018-10-17T00:54:52.294Z,1014.86
2018-10-17T00:55:52.283Z,1014.86
2018-10-17T00:56:52.284Z,1014.80
2018-10-17T00:57:52.278Z,1014.81
2018-10-17T00:58:52.281Z,1014.82
2018-10-17T00:59:52.261Z,1014.77
2018-10-17T01:00:52.264Z,1014.74
2018-10-17T01:01:52.252Z,1014.74
2018-10-17T01:02:52.248Z,1014.79
2018-10-17T01:03:52.238Z,1014.77
2018-10-17T01:04:52.268Z,1014.74
2018-10-17T01:05:52.230Z,1014.72
2018-10-17T01:06:52.267Z,1014.71
2018-10-17T01:07:52.224Z,1014.74
2018-10-17T01:08:52.222Z,1014.69
2018-10-17T01:09:52.209Z,1014.70
2018-10-17T01:10:52.204Z,1014.70
2018-10-17T01:11:52.197Z,1014.71
2018-10-17T01:12:52.220Z,1014.71
2018-10-17T01:13:52.189Z,1014.68
2018-10-17T01:14:52.174Z,1014.68
2018-10-17T01:15:52.172Z,1014.71
2018-10-17T01:16:52.175Z,1014.68
2018-10-17T01:17:52.155Z,1014.68
2018-10-17T01:18:52.188Z,1014.69
2018-10-17T01:19:52.147Z,1014.70
2018-10-17T01:20:52.143Z,1014.66
2018-10-17T01:21:52.143Z,1014.66
2018-10-17T01:22:52.129Z,1014.63
2018-10-17T01:23:52.122Z,1014.59
2018-10-17T01:24:52.118Z,1014.62
2018-10-17T01:25:52.118Z,1014.60
2018-10-17T01:26:52.108Z,1014.64
2018-10-17T01:27:52.103Z,1014.61
2018-10-17T01:28:52.114Z,1014.61
2018-10-17T01:29:52.091Z,1014.66
2018-10-17T01:30:52.116Z,1014.67
2018-10-17T01:31:52.074Z,1014.67
2018-10-17T01:32:52.069Z,1014.66
2018-10-17T01:33:52.063Z,1014.63
2018-10-17T01:34:52.086Z,1014.64
2018-10-17T01:35:52.065Z,1014.66
2018-10-17T01:36:52.095Z,1014.65
2018-10-17T01:37:52.038Z,1014.69
2018-10-17T01:38:52.035Z,1014.66
2018-10-17T01:39:52.036Z,1014.66
2018-10-17T01:40:52.026Z,1014.66
2018-10-17T01:41:52.024Z,1014.66
2018-10-17T01:42:52.020Z,1014.66
2018-10-17T01:43:52.008Z,1014.59
2018-10-17T01:44:52.003Z,1014.63
2018-10-17T01:45:51.993Z,1014.57
2018-10-17T01:46:52.040Z,1014.58
2018-10-17T01:47:51.988Z,1014.55
2018-10-17T01:48:52.013Z,1014.54
2018-10-17T01:49:51.974Z,1014.53
2018-10-17T01:50:51.965Z,1014.53
2018-10-17T01:51:51.965Z,1014.49
2018-10-17T01:52:52.001Z,1014.51
2018-10-17T01:53:51.947Z,1014.51
2018-10-17T01:54:51.958Z,1014.52
2018-10-17T01:55:51.934Z,1014.52
2018-10-17T01:56:51.929Z,1014.52
2018-10-17T01:57:51.939Z,1014.54
2018-10-17T01:58:51.980Z,1014.53
2018-10-17T01:59:51.916Z,1014.53
2018-10-17T02:00:51.921Z,1014.50
2018-10-17T02:01:51.898Z,1014.49
2018-10-17T02:02:51.897Z,1014.50
2018-10-17T02:03:51.900Z,1014.48
2018-10-17T02:04:51.899Z,1014.46
2018-10-17T02:05:51.884Z,1014.48
2018-10-17T02:06:51.885Z,1014.43
2018-10-17T02:07:51.870Z,1014.43
2018-10-17T02:08:51.868Z,1014.47
2018-10-17T02:09:51.855Z,1014.41
2018-10-17T02:10:51.855Z,1014.43
2018-10-17T02:11:51.849Z,1014.41
2018-10-17T02:12:51.844Z,1014.42
2018-10-17T02:13:51.839Z,1014.41
2018-10-17T02:14:51.825Z,1014.40
2018-10-17T02:15:51.818Z,1014.42
2018-10-17T02:16:51.820Z,1014.40
2018-10-17T02:17:51.808Z,1014.36
2018-10-17T02:18:51.826Z,1014.41
2018-10-17T02:19:51.801Z,1014.42
2018-10-17T02:20:51.788Z,1014.40
2018-10-17T02:21:51.788Z,1014.40
2018-10-17T02:22:51.808Z,1014.39
2018-10-17T02:23:51.775Z,1014.43
2018-10-17T02:24:51.794Z,1014.43
2018-10-17T02:25:51.762Z,1014.41
2018-10-17T02:26:51.758Z,1014.42
2018-10-17T02:27:51.748Z,1014.43
2018-10-17T02:28:51.752Z,1014.43
2018-10-17T02:29:51.798Z,1014.42
2018-10-17T02:30:51.794Z,1014.47
2018-10-17T02:31:51.733Z,1014.45
2018-10-17T02:32:51.718Z,1014.45
2018-10-17T02:33:51.717Z,1014.44
2018-10-17T02:34:51.747Z,1014.44
2018-10-17T02:35:51.701Z,1014.44
2018-10-17T02:36:51.711Z,1014.47
2018-10-17T02:37:51.689Z,1014.42
2018-10-17T02:38:51.688Z,1014.41
2018-10-17T02:39:51.683Z,1014.43
2018-10-17T02:40:51.722Z,1014.43
2018-10-17T02:41:51.668Z,1014.41
2018-10-17T02:42:51.666Z,1014.43
2018-10-17T02:43:51.653Z,1014.44
2018-10-17T02:44:51.662Z,1014.46
2018-10-17T02:45:51.650Z,1014.45
2018-10-17T02:46:51.660Z,1014.43
2018-10-17T02:47:51.634Z,1014.47
2018-10-17T02:48:51.664Z,1014.44
2018-10-17T02:49:51.624Z,1014.43
2018-10-17T02:50:51.625Z,1014.46
2018-10-17T02:51:51.616Z,1014.44
2018-10-17T02:52:51.607Z,1014.43
2018-10-17T02:53:51.610Z,1014.44
2018-10-17T02:54:51.597Z,1014.43
2018-10-17T02:55:51.590Z,1014.42
2018-10-17T02:56:51.579Z,1014.45
2018-10-17T02:57:51.579Z,1014.46
2018-10-17T02:58:51.637Z,1014.47
2018-10-17T02:59:51.565Z,1014.48
2018-10-17T03:00:51.590Z,1014.43
2018-10-17T03:01:51.564Z,1014.47
2018-10-17T03:02:51.545Z,1014.47
2018-10-17T03:03:51.538Z,1014.47
2018-10-17T03:04:51.548Z,1014.53
2018-10-17T03:05:51.526Z,1014.51
2018-10-17T03:06:51.548Z,1014.53
2018-10-17T03:07:51.524Z,1014.55
2018-10-17T03:08:51.524Z,1014.52
2018-10-17T03:09:51.508Z,1014.55
2018-10-17T03:10:51.520Z,1014.52
2018-10-17T03:11:51.498Z,1014.53
2018-10-17T03:12:51.540Z,1014.57
2018-10-17T03:13:51.479Z,1014.58
2018-10-17T03:14:51.481Z,1014.60
2018-10-17T03:15:51.474Z,1014.57
2018-10-17T03:16:51.513Z,1014.54
2018-10-17T03:17:51.465Z,1014.54
2018-10-17T03:18:51.455Z,1014.51
2018-10-17T03:19:51.451Z,1014.55
2018-10-17T03:20:51.441Z,1014.53
2018-10-17T03:21:51.437Z,1014.51
2018-10-17T03:22:51.458Z,1014.55
2018-10-17T03:23:51.423Z,1014.55
2018-10-17T03:24:51.452Z,1014.56
2018-10-17T03:25:51.416Z,1014.57
2018-10-17T03:26:51.413Z,1014.58
2018-10-17T03:27:51.420Z,1014.60
2018-10-17T03:28:51.425Z,1014.59
2018-10-17T03:29:51.391Z,1014.59
2018-10-17T03:30:51.429Z,1014.62
2018-10-17T03:31:51.391Z,1014.62
2018-10-17T03:32:51.378Z,1014.61
2018-10-17T03:33:51.364Z,1014.62
2018-10-17T03:34:51.416Z,1014.58
2018-10-17T03:35:51.368Z,1014.63
2018-10-17T03:36:51.356Z,1014.64
2018-10-17T03:37:51.355Z,1014.64
2018-10-17T03:38:51.335Z,1014.64
2018-10-17T03:39:51.347Z,1014.67
2018-10-17T03:40:51.331Z,1014.67
2018-10-17T03:41:51.323Z,1014.64
2018-10-17T03:42:51.368Z,1014.63
2018-10-17T03:43:51.345Z,1014.64
2018-10-17T03:44:51.299Z,1014.65
2018-10-17T03:45:51.295Z,1014.64
2018-10-17T03:46:51.314Z,1014.66
2018-10-17T03:47:51.291Z,1014.66
2018-10-17T03:48:51.297Z,1014.66
2018-10-17T03:49:51.358Z,1014.71
2018-10-17T03:50:51.266Z,1014.68
2018-10-17T03:51:51.263Z,1014.71
2018-10-17T03:52:51.269Z,1014.72
2018-10-17T03:53:51.252Z,1014.75
2018-10-17T03:54:51.283Z,1014.76
2018-10-17T03:55:51.232Z,1014.73
2018-10-17T03:56:51.235Z,1014.77
2018-10-17T03:57:51.225Z,1014.75
2018-10-17T03:58:51.231Z,1014.77
2018-10-17T03:59:51.211Z,1014.80
2018-10-17T04:00:51.216Z,1014.80
2018-10-17T04:01:51.199Z,1014.83
2018-10-17T04:02:51.251Z,1014.82
2018-10-17T04:03:51.185Z,1014.82
2018-10-17T04:04:51.198Z,1014.80
2018-10-17T04:05:51.186Z,1014.81
2018-10-17T04:06:51.177Z,1014.81
2018-10-17T04:07:51.181Z,1014.79
2018-10-17T04:08:51.160Z,1014.76
2018-10-17T04:09:51.154Z,1014.78
2018-10-17T04:10:51.213Z,1014.76
2018-10-17T04:11:51.142Z,1014.78
2018-10-17T04:12:51.158Z,1014.78
2018-10-17T04:13:51.131Z,1014.81
2018-10-17T04:14:51.125Z,1014.78
2018-10-17T04:15:51.114Z,1014.79
2018-10-17T04:16:51.113Z,1014.81
2018-10-17T04:17:51.107Z,1014.78
2018-10-17T04:18:51.145Z,1014.79
2018-10-17T04:19:51.096Z,1014.78
2018-10-17T04:20:51.087Z,1014.80
2018-10-17T04:21:51.088Z,1014.79
2018-10-17T04:22:51.107Z,1014.79
2018-10-17T04:23:51.072Z,1014.79
2018-10-17T04:24:51.073Z,1014.84
2018-10-17T04:25:51.056Z,1014.78
2018-10-17T04:26:51.052Z,1014.79
2018-10-17T04:27:51.052Z,1014.81
2018-10-17T04:28:51.078Z,1014.84
2018-10-17T04:29:51.042Z,1014.86
2018-10-17T04:30:51.030Z,1014.81
2018-10-17T04:31:51.027Z,1014.87
2018-10-17T04:32:51.017Z,1014.84
2018-10-17T04:33:51.020Z,1014.83
2018-10-17T04:34:51.026Z,1014.83
2018-10-17T04:35:51.003Z,1014.80
2018-10-17T04:36:51.059Z,1014.80
2018-10-17T04:37:50.989Z,1014.80
2018-10-17T04:38:50.987Z,1014.81
2018-10-17T04:39:50.981Z,1014.81
2018-10-17T04:40:50.988Z,1014.79
2018-10-17T04:41:50.977Z,1014.82
2018-10-17T04:42:50.983Z,1014.79
2018-10-17T04:43:50.957Z,1014.78
2018-10-17T04:44:50.945Z,1014.84
2018-10-17T04:45:50.946Z,1014.81
2018-10-17T04:46:50.986Z,1014.82
2018-10-17T04:47:50.931Z,1014.78
2018-10-17T04:48:50.932Z,1014.80
2018-10-17T04:49:50.925Z,1014.83
2018-10-17T04:50:50.916Z,1014.83
2018-10-17T04:51:50.916Z,1014.82
2018-10-17T04:52:50.913Z,1014.85
2018-10-17T04:53:50.897Z,1014.84
2018-10-17T04:54:50.959Z,1014.82
2018-10-17T04:55:50.888Z,1014.81
2018-10-17T04:56:50.880Z,1014.84
2018-10-17T04:57:50.876Z,1014.83
2018-10-17T04:58:50.874Z,1014.82
2018-10-17T04:59:50.856Z,1014.84
2018-10-17T05:00:50.899Z,1014.81
2018-10-17T05:01:50.849Z,1014.80
2018-10-17T05:02:50.850Z,1014.80
2018-10-17T05:03:50.835Z,1014.78
2018-10-17T05:04:50.829Z,1014.74
2018-10-17T05:05:50.822Z,1014.81
2018-10-17T05:06:50.873Z,1014.83
2018-10-17T05:07:50.815Z,1014.80
2018-10-17T05:08:50.811Z,1014.80
2018-10-17T05:09:50.803Z,1014.84
2018-10-17T05:10:50.824Z,1014.79
2018-10-17T05:11:50.790Z,1014.78
2018-10-17T05:12:50.796Z,1014.81
2018-10-17T05:13:50.790Z,1014.81
2018-10-17T05:14:50.770Z,1014.84
2018-10-17T05:15:50.780Z,1014.81
2018-10-17T05:16:50.762Z,1014.84
2018-10-17T05:17:50.772Z,1014.85
2018-10-17T05:18:50.746Z,1014.83
2018-10-17T05:19:50.751Z,1014.83
2018-10-17T05:20:50.735Z,1014.85
2018-10-17T05:21:50.737Z,1014.79
2018-10-17T05:22:50.722Z,1014.81
2018-10-17T05:23:50.722Z,1014.76
2018-10-17T05:24:50.717Z,1014.79
2018-10-17T05:25:50.706Z,1014.79
2018-10-17T05:26:50.705Z,1014.76
2018-10-17T05:27:50.692Z,1014.80
2018-10-17T05:28:50.741Z,1014.77
2018-10-17T05:29:50.756Z,1014.80
2018-10-17T05:30:50.681Z,1014.75
2018-10-17T05:31:50.675Z,1014.81
2018-10-17T05:32:50.670Z,1014.79
2018-10-17T05:33:50.661Z,1014.78
2018-10-17T05:34:50.657Z,1014.77
2018-10-17T05:35:50.646Z,1014.79
2018-10-17T05:36:50.653Z,1014.75
2018-10-17T05:37:50.800Z,1014.77
2018-10-17T05:38:50.639Z,1014.78
2018-10-17T05:39:50.638Z,1014.75
2018-10-17T05:40:50.620Z,1014.78
2018-10-17T05:41:50.618Z,1014.81
2018-10-17T05:42:50.617Z,1014.80
2018-10-17T05:43:50.652Z,1014.79
2018-10-17T05:44:50.597Z,1014.78
2018-10-17T05:45:50.591Z,1014.79
2018-10-17T05:46:50.595Z,1014.80
2018-10-17T05:47:50.576Z,1014.83
2018-10-17T05:48:50.572Z,1014.81
2018-10-17T05:49:50.588Z,1014.82
2018-10-17T05:50:50.568Z,1014.81
2018-10-17T05:51:50.559Z,1014.81
2018-10-17T05:52:50.602Z,1014.80
2018-10-17T05:53:50.549Z,1014.85
2018-10-17T05:54:50.552Z,1014.86
2018-10-17T05:55:50.544Z,1014.87
2018-10-17T05:56:50.527Z,1014.87
2018-10-17T05:57:50.523Z,1014.89
2018-10-17T05:58:50.527Z,1014.94
2018-10-17T05:59:50.516Z,1014.95
2018-10-17T06:00:50.508Z,1014.96
2018-10-17T06:01:50.535Z,1015.01
2018-10-17T06:02:50.495Z,1015.02
2018-10-17T06:03:50.487Z,1015.05
2018-10-17T06:04:50.478Z,1015.10
2018-10-17T06:05:50.469Z,1015.14
2018-10-17T06:06:50.461Z,1015.16
2018-10-17T06:07:50.472Z,1015.22
2018-10-17T06:08:50.457Z,1015.21
2018-10-17T06:09:50.463Z,1015.16
2018-10-17T06:10:50.449Z,1015.13
2018-10-17T06:11:50.430Z,1015.15
2018-10-17T06:12:50.432Z,1015.16
2018-10-17T06:13:50.426Z,1015.23
2018-10-17T06:14:50.428Z,1015.28
2018-10-17T06:15:50.413Z,1015.29
2018-10-17T06:16:50.475Z,1015.35
2018-10-17T06:17:50.408Z,1015.33
2018-10-17T06:18:50.396Z,1015.33
2018-10-17T06:19:50.388Z,1015.32
2018-10-17T06:20:50.390Z,1015.32
2018-10-17T06:21:50.396Z,1015.31
2018-10-17T06:22:50.374Z,1015.23
2018-10-17T06:23:50.371Z,1015.22
2018-10-17T06:24:50.360Z,1015.25
2018-10-17T06:25:50.359Z,1015.31
2018-10-17T06:26:50.361Z,1015.31
2018-10-17T06:27:50.349Z,1015.31
2018-10-17T06:28:50.339Z,1015.30
2018-10-17T06:29:50.335Z,1015.35
2018-10-17T06:30:50.436Z,1015.37
2018-10-17T06:31:50.320Z,1015.42
2018-10-17T06:32:50.319Z,1015.39
2018-10-17T06:33:50.373Z,1015.40
2018-10-17T06:34:50.401Z,1015.34
2018-10-17T06:35:50.303Z,1015.34
2018-10-17T06:36:50.289Z,1015.35
2018-10-17T06:37:50.298Z,1015.32
2018-10-17T06:38:50.272Z,1015.35
2018-10-17T06:39:50.280Z,1015.33
2018-10-17T06:40:50.327Z,1015.34
2018-10-17T06:41:50.264Z,1015.34
2018-10-17T06:42:50.259Z,1015.39
2018-10-17T06:43:50.287Z,1015.38
2018-10-17T06:44:50.249Z,1015.42
2018-10-17T06:45:50.276Z,1015.40
2018-10-17T06:46:50.234Z,1015.37
2018-10-17T06:47:50.234Z,1015.39
2018-10-17T06:48:50.217Z,1015.42
2018-10-17T06:49:50.228Z,1015.41
2018-10-17T06:50:50.204Z,1015.38
2018-10-17T06:51:50.204Z,1015.38
2018-10-17T06:52:50.190Z,1015.38
2018-10-17T06:53:50.228Z,1015.34
2018-10-17T06:54:50.191Z,1015.34
2018-10-17T06:55:50.186Z,1015.33
2018-10-17T06:56:50.176Z,1015.33
2018-10-17T06:57:50.168Z,1015.36
2018-10-17T06:58:50.160Z,1015.36
2018-10-17T06:59:50.166Z,1015.36
2018-10-17T07:00:50.144Z,1015.34
2018-10-17T07:01:50.204Z,1015.33
2018-10-17T07:02:50.148Z,1015.34
2018-10-17T07:03:50.137Z,1015.31
2018-10-17T07:04:50.128Z,1015.31
2018-10-17T07:05:50.125Z,1015.29
2018-10-17T07:06:50.115Z,1015.32
2018-10-17T07:07:50.115Z,1015.35
2018-10-17T07:08:50.104Z,1015.35
2018-10-17T07:09:50.104Z,1015.33
2018-10-17T07:10:50.107Z,1015.36
2018-10-17T07:11:50.100Z,1015.35
2018-10-17T07:12:50.074Z,1015.37
2018-10-17T07:13:50.075Z,1015.39
2018-10-17T07:14:50.072Z,1015.38
2018-10-17T07:15:50.099Z,1015.38
2018-10-17T07:16:50.054Z,1015.37
2018-10-17T07:17:50.048Z,1015.42
2018-10-17T07:18:50.052Z,1015.37
2018-10-17T07:19:50.052Z,1015.42
2018-10-17T07:20:50.033Z,1015.37
2018-10-17T07:21:50.028Z,1015.40
2018-10-17T07:22:50.015Z,1015.37
2018-10-17T07:23:50.014Z,1015.39
2018-10-17T07:24:50.009Z,1015.43
2018-10-17T07:25:50.000Z,1015.39
2018-10-17T07:26:49.998Z,1015.42
2018-10-17T07:27:49.998Z,1015.40
2018-10-17T07:28:50.028Z,1015.38
2018-10-17T07:29:50.067Z,1015.38
2018-10-17T07:30:49.976Z,1015.41
2018-10-17T07:31:49.968Z,1015.40
2018-10-17T07:32:49.963Z,1015.40
2018-10-17T07:33:49.956Z,1015.43
2018-10-17T07:34:49.965Z,1015.43
2018-10-17T07:35:50.033Z,1015.46
2018-10-17T07:36:49.929Z,1015.45
2018-10-17T07:37:49.935Z,1015.47
2018-10-17T07:38:49.932Z,1015.45
2018-10-17T07:39:49.919Z,1015.45
2018-10-17T07:40:49.912Z,1015.46
2018-10-17T07:41:49.910Z,1015.48
2018-10-17T07:42:49.907Z,1015.50
2018-10-17T07:43:49.905Z,1015.46
2018-10-17T07:44:49.885Z,1015.50
2018-10-17T07:45:49.897Z,1015.44
2018-10-17T07:46:49.897Z,1015.45
2018-10-17T07:47:49.873Z,1015.48
2018-10-17T07:48:49.870Z,1015.50
2018-10-17T07:49:49.869Z,1015.49
2018-10-17T07:50:49.850Z,1015.51
2018-10-17T07:51:49.851Z,1015.52
2018-10-17T07:52:49.846Z,1015.52
2018-10-17T07:53:49.836Z,1015.50
2018-10-17T07:54:49.836Z,1015.49
2018-10-17T07:55:49.834Z,1015.48
2018-10-17T07:56:49.838Z,1015.51
2018-10-17T07:57:49.822Z,1015.50
2018-10-17T07:58:49.812Z,1015.47
2018-10-17T07:59:49.849Z,1015.49
2018-10-17T08:00:49.789Z,1015.48
2018-10-17T08:01:49.784Z,1015.47
2018-10-17T08:02:49.807Z,1015.47
2018-10-17T08:03:49.805Z,1015.48
2018-10-17T08:04:49.783Z,1015.50
2018-10-17T08:05:49.771Z,1015.51
2018-10-17T08:06:49.804Z,1015.51
2018-10-17T08:07:49.776Z,1015.49
2018-10-17T08:08:49.766Z,1015.49
2018-10-17T08:09:49.750Z,1015.50
2018-10-17T08:10:49.753Z,1015.51
2018-10-17T08:11:49.735Z,1015.49
2018-10-17T08:12:49.739Z,1015.50
2018-10-17T08:13:49.733Z,1015.54
2018-10-17T08:14:49.732Z,1015.48
2018-10-17T08:15:49.705Z,1015.50
2018-10-17T08:16:49.706Z,1015.53
2018-10-17T08:17:49.701Z,1015.52
2018-10-17T08:18:49.699Z,1015.53
2018-10-17T08:19:49.690Z,1015.48
2018-10-17T08:20:49.692Z,1015.50
2018-10-17T08:21:49.675Z,1015.47
2018-10-17T08:22:49.670Z,1015.49
2018-10-17T08:23:49.666Z,1015.50
2018-10-17T08:24:49.661Z,1015.48
2018-10-17T08:25:49.658Z,1015.48
2018-10-17T08:26:49.650Z,1015.48
2018-10-17T08:27:49.646Z,1015.51
2018-10-17T08:28:49.634Z,1015.46
2018-10-17T08:29:49.632Z,1015.48
2018-10-17T08:30:49.619Z,1015.50
2018-10-17T08:31:49.617Z,1015.49
2018-10-17T08:32:49.606Z,1015.48
2018-10-17T08:33:49.613Z,1015.50
2018-10-17T08:34:49.601Z,1015.49
2018-10-17T08:35:49.719Z,1015.50
2018-10-17T08:36:49.816Z,1015.48
2018-10-17T08:37:50.071Z,1015.49
2018-10-17T08:38:49.590Z,1015.52
2018-10-17T08:39:49.571Z,1015.49
2018-10-17T08:40:49.568Z,1015.53
2018-10-17T08:41:49.574Z,1015.53
2018-10-17T08:42:49.556Z,1015.50
2018-10-17T08:43:49.550Z,1015.53
2018-10-17T08:44:49.537Z,1015.50
2018-10-17T08:45:49.542Z,1015.50
2018-10-17T08:46:49.531Z,1015.47
2018-10-17T08:47:49.528Z,1015.47
2018-10-17T08:48:49.521Z,1015.45
2018-10-17T08:49:49.521Z,1015.44
2018-10-17T08:50:49.573Z,1015.42
2018-10-17T08:51:49.504Z,1015.44
2018-10-17T08:52:49.502Z,1015.44
2018-10-17T08:53:49.508Z,1015.47
2018-10-17T08:54:49.475Z,1015.45
2018-10-17T08:55:49.512Z,1015.45
2018-10-17T08:56:49.475Z,1015.45
2018-10-17T08:57:49.513Z,1015.49
2018-10-17T08:58:49.467Z,1015.47
2018-10-17T08:59:49.447Z,1015.46
2018-10-17T09:00:49.447Z,1015.47
2018-10-17T09:01:49.443Z,1015.51
2018-10-17T09:02:49.438Z,1015.49
2018-10-17T09:03:49.441Z,1015.46
2018-10-17T09:04:49.451Z,1015.47
2018-10-17T09:05:49.421Z,1015.51
2018-10-17T09:06:49.420Z,1015.54
2018-10-17T09:07:49.444Z,1015.55
2018-10-17T09:08:49.411Z,1015.57
2018-10-17T09:09:49.403Z,1015.57
2018-10-17T09:10:49.398Z,1015.57
2018-10-17T09:11:49.407Z,1015.59
2018-10-17T09:12:49.384Z,1015.61
2018-10-17T09:13:49.390Z,1015.59
2018-10-17T09:14:49.379Z,1015.60
2018-10-17T09:15:49.368Z,1015.64
2018-10-17T09:16:49.392Z,1015.59
2018-10-17T09:17:49.355Z,1015.57
2018-10-17T09:18:49.352Z,1015.60
2018-10-17T09:19:49.473Z,1015.60
2018-10-17T09:20:49.753Z,1015.58
2018-10-17T09:21:49.488Z,1015.58
2018-10-17T09:22:49.336Z,1015.59
2018-10-17T09:23:49.317Z,1015.62
2018-10-17T09:24:49.324Z,1015.59
2018-10-17T09:25:49.311Z,1015.59
2018-10-17T09:26:49.356Z,1015.63
2018-10-17T09:27:49.317Z,1015.57
2018-10-17T09:28:49.294Z,1015.57
2018-10-17T09:29:49.299Z,1015.57
2018-10-17T09:30:49.352Z,1015.58
2018-10-17T09:31:49.282Z,1015.57
2018-10-17T09:32:49.271Z,1015.56
2018-10-17T09:33:49.271Z,1015.59
2018-10-17T09:34:49.272Z,1015.62
2018-10-17T09:35:49.323Z,1015.60
2018-10-17T09:36:49.258Z,1015.61
2018-10-17T09:37:49.236Z,1015.61
2018-10-17T09:38:49.243Z,1015.58
2018-10-17T09:39:49.242Z,1015.61
2018-10-17T09:40:49.233Z,1015.60
2018-10-17T09:41:49.226Z,1015.59
2018-10-17T09:42:49.219Z,1015.59
2018-10-17T09:43:49.215Z,1015.60
2018-10-17T09:44:49.214Z,1015.58
2018-10-17T09:45:49.205Z,1015.58
2018-10-17T09:46:49.267Z,1015.60
2018-10-17T09:47:49.202Z,1015.64
2018-10-17T09:48:49.187Z,1015.63
2018-10-17T09:49:49.198Z,1015.58
2018-10-17T09:50:49.201Z,1015.60
2018-10-17T09:51:49.168Z,1015.61
2018-10-17T09:52:49.182Z,1015.63
2018-10-17T09:53:49.169Z,1015.62
2018-10-17T09:54:49.153Z,1015.60
2018-10-17T09:55:49.158Z,1015.60
2018-10-17T09:56:49.138Z,1015.64
2018-10-17T09:57:49.144Z,1015.65
2018-10-17T09:58:49.133Z,1015.65
2018-10-17T09:59:49.146Z,1015.62
2018-10-17T10:00:49.114Z,1015.63
2018-10-17T10:01:49.111Z,1015.61
2018-10-17T10:02:49.124Z,1015.57
2018-10-17T10:03:49.111Z,1015.60
2018-10-17T10:04:49.114Z,1015.57
2018-10-17T10:05:49.096Z,1015.55
2018-10-17T10:06:49.086Z,1015.57
2018-10-17T10:07:49.082Z,1015.52
2018-10-17T10:08:49.072Z,1015.54
2018-10-17T10:09:49.076Z,1015.56
2018-10-17T10:10:49.127Z,1015.54
2018-10-17T10:11:49.073Z,1015.50
2018-10-17T10:12:49.073Z,1015.52
2018-10-17T10:13:49.050Z,1015.52
2018-10-17T10:14:49.046Z,1015.49
2018-10-17T10:15:49.036Z,1015.52
2018-10-17T10:16:49.042Z,1015.51
2018-10-17T10:17:49.027Z,1015.52
2018-10-17T10:18:49.025Z,1015.50
2018-10-17T10:19:49.013Z,1015.52
2018-10-17T10:20:49.019Z,1015.50
2018-10-17T10:21:49.008Z,1015.50
2018-10-17T10:22:49.006Z,1015.50
2018-10-17T10:23:49.064Z,1015.50
2018-10-17T10:24:49.031Z,1015.51
2018-10-17T10:25:48.986Z,1015.50
2018-10-17T10:26:49.035Z,1015.47
2018-10-17T10:27:48.973Z,1015.49
2018-10-17T10:28:48.976Z,1015.48
2018-10-17T10:29:49.058Z,1015.49
2018-10-17T10:30:48.971Z,1015.48
2018-10-17T10:31:48.949Z,1015.48
2018-10-17T10:32:48.948Z,1015.46
2018-10-17T10:33:48.947Z,1015.45
2018-10-17T10:34:48.933Z,1015.43
2018-10-17T10:35:48.932Z,1015.43
2018-10-17T10:36:48.928Z,1015.45
2018-10-17T10:37:48.924Z,1015.41
2018-10-17T10:38:48.917Z,1015.41
2018-10-17T10:39:48.912Z,1015.40
2018-10-17T10:40:48.912Z,1015.38
2018-10-17T10:41:48.908Z,1015.41
2018-10-17T10:42:48.893Z,1015.41
2018-10-17T10:43:48.896Z,1015.39
2018-10-17T10:44:48.890Z,1015.37
2018-10-17T10:45:48.884Z,1015.40
2018-10-17T10:46:48.871Z,1015.38
2018-10-17T10:47:48.859Z,1015.37
2018-10-17T10:48:48.872Z,1015.34
2018-10-17T10:49:48.854Z,1015.34
2018-10-17T10:50:48.858Z,1015.33
2018-10-17T10:51:48.848Z,1015.34
2018-10-17T10:52:48.892Z,1015.33
2018-10-17T10:53:48.837Z,1015.27
2018-10-17T10:54:48.885Z,1015.29
2018-10-17T10:55:48.823Z,1015.27
2018-10-17T10:56:48.824Z,1015.26
2018-10-17T10:57:48.818Z,1015.28
2018-10-17T10:58:48.918Z,1015.24
2018-10-17T10:59:48.809Z,1015.25
2018-10-17T11:00:48.798Z,1015.23
2018-10-17T11:01:48.803Z,1015.21
2018-10-17T11:02:48.790Z,1015.18
2018-10-17T11:03:48.787Z,1015.18
2018-10-17T11:04:48.846Z,1015.18
2018-10-17T11:05:48.934Z,1015.17
2018-10-17T11:06:48.768Z,1015.16
2018-10-17T11:07:48.771Z,1015.12
2018-10-17T11:08:48.758Z,1015.12
2018-10-17T11:09:48.756Z,1015.13
2018-10-17T11:10:48.749Z,1015.11
2018-10-17T11:11:48.759Z,1015.11
2018-10-17T11:12:48.741Z,1015.10
2018-10-17T11:13:48.752Z,1015.07
2018-10-17T11:14:48.810Z,1015.06
2018-10-17T11:15:48.728Z,1015.07
2018-10-17T11:16:48.714Z,1015.02
2018-10-17T11:17:48.724Z,1015.04
2018-10-17T11:18:48.696Z,1015.02
2018-10-17T11:19:48.689Z,1014.99
2018-10-17T11:20:48.689Z,1015.00
2018-10-17T11:21:48.724Z,1014.97
2018-10-17T11:22:48.694Z,1014.98
2018-10-17T11:23:48.676Z,1014.93
2018-10-17T11:24:48.674Z,1014.97
2018-10-17T11:25:48.669Z,1014.99
2018-10-17T11:26:48.667Z,1014.95
2018-10-17T11:27:48.660Z,1014.98
2018-10-17T11:28:48.655Z,1014.98
2018-10-17T11:29:48.655Z,1014.96
2018-10-17T11:30:48.649Z,1014.97
2018-10-17T11:31:48.690Z,1014.97
2018-10-17T11:32:48.634Z,1014.96
2018-10-17T11:33:48.626Z,1014.97
2018-10-17T11:34:48.627Z,1014.92
2018-10-17T11:35:48.646Z,1014.96
2018-10-17T11:36:48.604Z,1014.93
2018-10-17T11:37:48.653Z,1014.94
2018-10-17T11:38:48.607Z,1014.96
2018-10-17T11:39:48.597Z,1014.89
2018-10-17T11:40:48.591Z,1014.94
2018-10-17T11:41:48.588Z,1014.91
2018-10-17T11:42:48.602Z,1014.89
2018-10-17T11:43:48.573Z,1014.86
2018-10-17T11:44:48.568Z,1014.85
2018-10-17T11:45:48.558Z,1014.86
2018-10-17T11:46:48.564Z,1014.89
2018-10-17T11:47:48.656Z,1014.83
2018-10-17T11:48:48.553Z,1014.84
2018-10-17T11:49:48.536Z,1014.83
2018-10-17T11:50:48.533Z,1014.79
2018-10-17T11:51:48.531Z,1014.82
2018-10-17T11:52:48.535Z,1014.84
2018-10-17T11:53:48.540Z,1014.81
2018-10-17T11:54:48.520Z,1014.84
2018-10-17T11:55:48.511Z,1014.82
2018-10-17T11:56:48.508Z,1014.83
2018-10-17T11:57:48.525Z,1014.79
2018-10-17T11:58:48.498Z,1014.78
2018-10-17T11:59:48.544Z,1014.81
2018-10-17T12:00:48.481Z,1014.80
2018-10-17T12:01:48.471Z,1014.75
2018-10-17T12:02:48.472Z,1014.75
2018-10-17T12:03:48.640Z,1014.76
2018-10-17T12:04:48.627Z,1014.72
2018-10-17T12:05:48.628Z,1014.72